sensor_id;sensor_type;location;lat;lon;timestamp;P1;durP1;ratioP1;P2;durP2;ratioP2
177;SDS011;77;48.792;9.032;2023-12-04T00:01:55;28.83;;;17.20;;
177;SDS011;77;48.792;9.032;2023-12-04T00:04:21;29.00;;;16.90;;
177;SDS011;77;48.792;9.032;2023-12-04T00:06:46;29.17;;;16.67;;
177;SDS011;77;48.792;9.032;2023-12-04T00:09:11;24.77;;;14.70;;
177;SDS011;77;48.792;9.032;2023-12-04T00:11:38;26.70;;;15.57;;
177;SDS011;77;48.792;9.032;2023-12-04T00:14:03;23.38;;;13.55;;
177;SDS011;77;48.792;9.032;2023-12-04T00:16:28;24.80;;;14.60;;
177;SDS011;77;48.792;9.032;2023-12-04T00:18:53;24.57;;;15.00;;
177;SDS011;77;48.792;9.032;2023-12-04T00:21:18;23.90;;;15.00;;
177;SDS011;77;48.792;9.032;2023-12-04T00:23:43;23.60;;;14.10;;
177;SDS011;77;48.792;9.032;2023-12-04T00:26:09;22.87;;;13.17;;
177;SDS011;77;48.792;9.032;2023-12-04T00:28:36;18.13;;;10.70;;
177;SDS011;77;48.792;9.032;2023-12-04T00:31:01;20.15;;;12.27;;
177;SDS011;77;48.792;9.032;2023-12-04T00:33:28;22.38;;;12.60;;
177;SDS011;77;48.792;9.032;2023-12-04T00:35:53;20.07;;;12.07;;
177;SDS011;77;48.792;9.032;2023-12-04T00:38:18;20.75;;;12.13;;
177;SDS011;77;48.792;9.032;2023-12-04T00:40:43;21.00;;;12.37;;
177;SDS011;77;48.792;9.032;2023-12-04T00:43:08;21.02;;;12.30;;
177;SDS011;77;48.792;9.032;2023-12-04T00:45:35;19.37;;;12.10;;
177;SDS011;77;48.792;9.032;2023-12-04T00:48:00;19.15;;;11.82;;
177;SDS011;77;48.792;9.032;2023-12-04T00:50:25;20.75;;;12.45;;
177;SDS011;77;48.792;9.032;2023-12-04T00:52:50;19.42;;;12.02;;
177;SDS011;77;48.792;9.032;2023-12-04T00:55:15;20.15;;;11.80;;
177;SDS011;77;48.792;9.032;2023-12-04T00:57:40;20.75;;;13.10;;
177;SDS011;77;48.792;9.032;2023-12-04T01:00:06;19.07;;;12.33;;
177;SDS011;77;48.792;9.032;2023-12-04T01:02:33;19.10;;;12.20;;
177;SDS011;77;48.792;9.032;2023-12-04T01:04:58;19.48;;;11.95;;
177;SDS011;77;48.792;9.032;2023-12-04T01:07:23;20.90;;;12.70;;
177;SDS011;77;48.792;9.032;2023-12-04T01:09:48;18.53;;;11.67;;
177;SDS011;77;48.792;9.032;2023-12-04T01:12:13;19.60;;;12.07;;
177;SDS011;77;48.792;9.032;2023-12-04T01:14:38;23.37;;;12.63;;
177;SDS011;77;48.792;9.032;2023-12-04T01:17:04;21.17;;;12.48;;
177;SDS011;77;48.792;9.032;2023-12-04T01:19:30;18.97;;;11.20;;
177;SDS011;77;48.792;9.032;2023-12-04T01:21:55;21.95;;;12.50;;
177;SDS011;77;48.792;9.032;2023-12-04T01:24:20;17.63;;;10.83;;
177;SDS011;77;48.792;9.032;2023-12-04T01:26:46;21.17;;;11.80;;
177;SDS011;77;48.792;9.032;2023-12-04T01:29:11;17.40;;;10.50;;
177;SDS011;77;48.792;9.032;2023-12-04T01:31:36;17.65;;;11.02;;
177;SDS011;77;48.792;9.032;2023-12-04T01:34:01;16.83;;;10.23;;
177;SDS011;77;48.792;9.032;2023-12-04T01:36:28;17.50;;;11.00;;
177;SDS011;77;48.792;9.032;2023-12-04T01:38:53;20.48;;;11.43;;
177;SDS011;77;48.792;9.032;2023-12-04T01:41:18;17.87;;;11.33;;
177;SDS011;77;48.792;9.032;2023-12-04T01:43:43;19.40;;;11.40;;
177;SDS011;77;48.792;9.032;2023-12-04T01:46:08;18.40;;;10.87;;
177;SDS011;77;48.792;9.032;2023-12-04T01:48:34;20.00;;;11.40;;
177;SDS011;77;48.792;9.032;2023-12-04T01:51:00;18.97;;;11.70;;
177;SDS011;77;48.792;9.032;2023-12-04T01:53:29;19.50;;;11.57;;
177;SDS011;77;48.792;9.032;2023-12-04T01:55:54;18.10;;;11.05;;
177;SDS011;77;48.792;9.032;2023-12-04T01:58:20;21.80;;;12.13;;
177;SDS011;77;48.792;9.032;2023-12-04T02:00:45;18.37;;;11.17;;
177;SDS011;77;48.792;9.032;2023-12-04T02:03:10;18.50;;;11.10;;
177;SDS011;77;48.792;9.032;2023-12-04T02:05:36;18.73;;;11.47;;
177;SDS011;77;48.792;9.032;2023-12-04T02:08:01;20.47;;;12.03;;
177;SDS011;77;48.792;9.032;2023-12-04T02:10:29;19.33;;;11.47;;
177;SDS011;77;48.792;9.032;2023-12-04T02:12:54;20.15;;;12.40;;
177;SDS011;77;48.792;9.032;2023-12-04T02:15:19;21.37;;;12.67;;
177;SDS011;77;48.792;9.032;2023-12-04T02:17:44;21.80;;;13.20;;
177;SDS011;77;48.792;9.032;2023-12-04T02:20:10;20.77;;;12.03;;
177;SDS011;77;48.792;9.032;2023-12-04T02:22:37;21.80;;;12.88;;
177;SDS011;77;48.792;9.032;2023-12-04T02:25:04;20.60;;;12.60;;
177;SDS011;77;48.792;9.032;2023-12-04T02:27:33;19.60;;;11.98;;
177;SDS011;77;48.792;9.032;2023-12-04T02:29:59;18.42;;;11.98;;
177;SDS011;77;48.792;9.032;2023-12-04T02:32:24;22.07;;;13.10;;
177;SDS011;77;48.792;9.032;2023-12-04T02:34:51;22.25;;;12.68;;
177;SDS011;77;48.792;9.032;2023-12-04T02:37:17;21.80;;;12.85;;
177;SDS011;77;48.792;9.032;2023-12-04T02:39:44;21.23;;;12.90;;
177;SDS011;77;48.792;9.032;2023-12-04T02:42:10;22.47;;;13.27;;
177;SDS011;77;48.792;9.032;2023-12-04T02:44:36;22.48;;;12.82;;
177;SDS011;77;48.792;9.032;2023-12-04T02:47:01;21.65;;;12.70;;
177;SDS011;77;48.792;9.032;2023-12-04T02:49:26;23.13;;;14.00;;
177;SDS011;77;48.792;9.032;2023-12-04T02:51:51;23.57;;;13.07;;
177;SDS011;77;48.792;9.032;2023-12-04T02:54:16;23.03;;;13.23;;
177;SDS011;77;48.792;9.032;2023-12-04T02:56:42;21.90;;;13.10;;
177;SDS011;77;48.792;9.032;2023-12-04T02:59:08;21.85;;;13.15;;
177;SDS011;77;48.792;9.032;2023-12-04T03:01:33;19.83;;;12.35;;
177;SDS011;77;48.792;9.032;2023-12-04T03:03:58;22.83;;;13.35;;
177;SDS011;77;48.792;9.032;2023-12-04T03:06:24;21.30;;;12.03;;
177;SDS011;77;48.792;9.032;2023-12-04T03:08:49;21.53;;;13.77;;
177;SDS011;77;48.792;9.032;2023-12-04T03:11:14;21.30;;;12.47;;
177;SDS011;77;48.792;9.032;2023-12-04T03:13:39;20.60;;;12.33;;
177;SDS011;77;48.792;9.032;2023-12-04T03:16:14;21.13;;;12.10;;
177;SDS011;77;48.792;9.032;2023-12-04T03:18:39;20.73;;;12.32;;
177;SDS011;77;48.792;9.032;2023-12-04T03:21:04;21.63;;;12.60;;
177;SDS011;77;48.792;9.032;2023-12-04T03:23:31;21.10;;;12.45;;
177;SDS011;77;48.792;9.032;2023-12-04T03:25:56;20.27;;;11.57;;
177;SDS011;77;48.792;9.032;2023-12-04T03:28:21;19.30;;;11.80;;
177;SDS011;77;48.792;9.032;2023-12-04T03:30:46;19.10;;;11.38;;
177;SDS011;77;48.792;9.032;2023-12-04T03:33:13;20.57;;;11.73;;
177;SDS011;77;48.792;9.032;2023-12-04T03:35:38;19.08;;;11.80;;
177;SDS011;77;48.792;9.032;2023-12-04T03:38:03;20.40;;;11.23;;
177;SDS011;77;48.792;9.032;2023-12-04T03:40:28;18.65;;;11.52;;
177;SDS011;77;48.792;9.032;2023-12-04T03:42:53;21.90;;;11.57;;
177;SDS011;77;48.792;9.032;2023-12-04T03:45:18;13.00;;;8.10;;
177;SDS011;77;48.792;9.032;2023-12-04T03:47:44;18.40;;;11.03;;
177;SDS011;77;48.792;9.032;2023-12-04T03:50:10;17.57;;;10.80;;
177;SDS011;77;48.792;9.032;2023-12-04T03:52:35;19.30;;;11.25;;
177;SDS011;77;48.792;9.032;2023-12-04T03:55:00;18.27;;;11.33;;
177;SDS011;77;48.792;9.032;2023-12-04T03:57:26;18.45;;;11.18;;
177;SDS011;77;48.792;9.032;2023-12-04T03:59:51;20.70;;;12.13;;
177;SDS011;77;48.792;9.032;2023-12-04T04:02:16;18.52;;;11.00;;
177;SDS011;77;48.792;9.032;2023-12-04T04:04:41;15.07;;;8.83;;
177;SDS011;77;48.792;9.032;2023-12-04T04:07:08;18.97;;;12.07;;
177;SDS011;77;48.792;9.032;2023-12-04T04:09:33;19.88;;;12.13;;
177;SDS011;77;48.792;9.032;2023-12-04T04:11:58;20.10;;;11.63;;
177;SDS011;77;48.792;9.032;2023-12-04T04:14:23;18.13;;;10.45;;
177;SDS011;77;48.792;9.032;2023-12-04T04:16:49;16.90;;;10.80;;
177;SDS011;77;48.792;9.032;2023-12-04T04:19:14;17.38;;;10.82;;
177;SDS011;77;48.792;9.032;2023-12-04T04:21:39;19.00;;;11.70;;
177;SDS011;77;48.792;9.032;2023-12-04T04:24:06;20.23;;;12.30;;
177;SDS011;77;48.792;9.032;2023-12-04T04:26:31;20.08;;;11.95;;
177;SDS011;77;48.792;9.032;2023-12-04T04:28:56;20.92;;;11.90;;
177;SDS011;77;48.792;9.032;2023-12-04T04:31:21;22.80;;;12.80;;
177;SDS011;77;48.792;9.032;2023-12-04T04:33:46;21.48;;;12.82;;
177;SDS011;77;48.792;9.032;2023-12-04T04:36:11;20.00;;;12.13;;
177;SDS011;77;48.792;9.032;2023-12-04T04:38:37;18.87;;;11.53;;
177;SDS011;77;48.792;9.032;2023-12-04T04:41:05;19.60;;;12.05;;
177;SDS011;77;48.792;9.032;2023-12-04T04:43:30;20.42;;;12.15;;
177;SDS011;77;48.792;9.032;2023-12-04T04:45:55;20.20;;;11.93;;
177;SDS011;77;48.792;9.032;2023-12-04T04:48:20;20.40;;;12.57;;
177;SDS011;77;48.792;9.032;2023-12-04T04:50:46;18.87;;;12.33;;
177;SDS011;77;48.792;9.032;2023-12-04T04:53:11;20.13;;;11.93;;
177;SDS011;77;48.792;9.032;2023-12-04T04:55:36;20.52;;;12.02;;
177;SDS011;77;48.792;9.032;2023-12-04T04:58:02;20.43;;;12.70;;
177;SDS011;77;48.792;9.032;2023-12-04T05:00:27;18.75;;;11.30;;
177;SDS011;77;48.792;9.032;2023-12-04T05:02:53;18.30;;;11.82;;
177;SDS011;77;48.792;9.032;2023-12-04T05:05:18;19.97;;;11.60;;
177;SDS011;77;48.792;9.032;2023-12-04T05:07:43;20.57;;;11.80;;
177;SDS011;77;48.792;9.032;2023-12-04T05:10:08;18.50;;;11.57;;
177;SDS011;77;48.792;9.032;2023-12-04T05:12:33;18.53;;;11.70;;
177;SDS011;77;48.792;9.032;2023-12-04T05:15:00;19.77;;;12.23;;
177;SDS011;77;48.792;9.032;2023-12-04T05:17:25;18.50;;;11.68;;
177;SDS011;77;48.792;9.032;2023-12-04T05:19:50;20.10;;;11.93;;
177;SDS011;77;48.792;9.032;2023-12-04T05:22:15;21.33;;;12.37;;
177;SDS011;77;48.792;9.032;2023-12-04T05:24:41;18.65;;;11.07;;
177;SDS011;77;48.792;9.032;2023-12-04T05:27:06;17.95;;;11.05;;
177;SDS011;77;48.792;9.032;2023-12-04T05:29:31;17.75;;;10.82;;
177;SDS011;77;48.792;9.032;2023-12-04T05:31:57;18.48;;;10.90;;
177;SDS011;77;48.792;9.032;2023-12-04T05:34:22;18.38;;;10.45;;
177;SDS011;77;48.792;9.032;2023-12-04T05:36:48;16.33;;;10.03;;
177;SDS011;77;48.792;9.032;2023-12-04T05:39:13;18.30;;;10.32;;
177;SDS011;77;48.792;9.032;2023-12-04T05:41:38;18.20;;;10.80;;
177;SDS011;77;48.792;9.032;2023-12-04T05:44:03;16.73;;;10.17;;
177;SDS011;77;48.792;9.032;2023-12-04T05:46:28;16.10;;;10.32;;
177;SDS011;77;48.792;9.032;2023-12-04T05:48:55;16.80;;;10.25;;
177;SDS011;77;48.792;9.032;2023-12-04T05:51:20;18.80;;;10.63;;
177;SDS011;77;48.792;9.032;2023-12-04T05:53:45;18.00;;;10.50;;
177;SDS011;77;48.792;9.032;2023-12-04T05:56:10;16.70;;;10.33;;
177;SDS011;77;48.792;9.032;2023-12-04T05:58:36;16.67;;;10.40;;
177;SDS011;77;48.792;9.032;2023-12-04T06:01:01;17.17;;;10.13;;
177;SDS011;77;48.792;9.032;2023-12-04T06:03:26;16.70;;;10.30;;
177;SDS011;77;48.792;9.032;2023-12-04T06:05:52;17.27;;;10.23;;
177;SDS011;77;48.792;9.032;2023-12-04T06:08:18;18.02;;;10.90;;
177;SDS011;77;48.792;9.032;2023-12-04T06:10:43;16.38;;;9.90;;
177;SDS011;77;48.792;9.032;2023-12-04T06:13:08;15.53;;;9.57;;
177;SDS011;77;48.792;9.032;2023-12-04T06:15:33;17.23;;;10.57;;
177;SDS011;77;48.792;9.032;2023-12-04T06:17:58;16.08;;;9.90;;
177;SDS011;77;48.792;9.032;2023-12-04T06:20:23;16.30;;;10.53;;
177;SDS011;77;48.792;9.032;2023-12-04T06:22:50;16.13;;;9.37;;
177;SDS011;77;48.792;9.032;2023-12-04T06:25:16;16.27;;;9.80;;
177;SDS011;77;48.792;9.032;2023-12-04T06:27:41;17.47;;;10.60;;
177;SDS011;77;48.792;9.032;2023-12-04T06:30:07;16.40;;;10.10;;
177;SDS011;77;48.792;9.032;2023-12-04T06:32:32;14.90;;;9.60;;
177;SDS011;77;48.792;9.032;2023-12-04T06:34:57;15.33;;;9.60;;
177;SDS011;77;48.792;9.032;2023-12-04T06:37:23;15.67;;;9.70;;
177;SDS011;77;48.792;9.032;2023-12-04T06:39:50;16.20;;;10.00;;
177;SDS011;77;48.792;9.032;2023-12-04T06:42:17;16.52;;;9.43;;
177;SDS011;77;48.792;9.032;2023-12-04T06:44:43;15.87;;;9.70;;
177;SDS011;77;48.792;9.032;2023-12-04T06:47:08;17.30;;;10.17;;
177;SDS011;77;48.792;9.032;2023-12-04T06:49:34;15.27;;;9.20;;
177;SDS011;77;48.792;9.032;2023-12-04T06:51:59;18.83;;;10.80;;
177;SDS011;77;48.792;9.032;2023-12-04T06:54:25;15.80;;;9.17;;
177;SDS011;77;48.792;9.032;2023-12-04T06:56:51;15.27;;;9.17;;
177;SDS011;77;48.792;9.032;2023-12-04T06:59:17;17.67;;;10.30;;
177;SDS011;77;48.792;9.032;2023-12-04T07:01:42;16.30;;;10.03;;
177;SDS011;77;48.792;9.032;2023-12-04T07:04:07;14.67;;;9.23;;
177;SDS011;77;48.792;9.032;2023-12-04T07:06:32;14.63;;;9.30;;
177;SDS011;77;48.792;9.032;2023-12-04T07:08:57;16.07;;;9.97;;
177;SDS011;77;48.792;9.032;2023-12-04T07:11:22;16.53;;;10.33;;
177;SDS011;77;48.792;9.032;2023-12-04T07:13:49;15.53;;;9.57;;
177;SDS011;77;48.792;9.032;2023-12-04T07:16:14;14.88;;;9.23;;
177;SDS011;77;48.792;9.032;2023-12-04T07:18:39;14.40;;;9.07;;
177;SDS011;77;48.792;9.032;2023-12-04T07:21:05;16.43;;;10.40;;
177;SDS011;77;48.792;9.032;2023-12-04T07:23:30;17.07;;;10.30;;
177;SDS011;77;48.792;9.032;2023-12-04T07:25:55;15.17;;;9.70;;
177;SDS011;77;48.792;9.032;2023-12-04T07:28:20;14.93;;;9.87;;
177;SDS011;77;48.792;9.032;2023-12-04T07:30:47;16.13;;;9.60;;
177;SDS011;77;48.792;9.032;2023-12-04T07:33:12;14.70;;;9.15;;
177;SDS011;77;48.792;9.032;2023-12-04T07:35:37;12.83;;;8.20;;
177;SDS011;77;48.792;9.032;2023-12-04T07:38:02;16.07;;;9.90;;
177;SDS011;77;48.792;9.032;2023-12-04T07:40:27;14.32;;;9.05;;
177;SDS011;77;48.792;9.032;2023-12-04T07:42:52;15.13;;;10.07;;
177;SDS011;77;48.792;9.032;2023-12-04T07:45:18;17.67;;;10.50;;
177;SDS011;77;48.792;9.032;2023-12-04T07:47:44;15.47;;;9.70;;
177;SDS011;77;48.792;9.032;2023-12-04T07:50:10;16.30;;;10.38;;
177;SDS011;77;48.792;9.032;2023-12-04T07:52:35;16.50;;;10.40;;
177;SDS011;77;48.792;9.032;2023-12-04T07:55:00;14.77;;;9.37;;
177;SDS011;77;48.792;9.032;2023-12-04T07:57:25;15.43;;;9.67;;
177;SDS011;77;48.792;9.032;2023-12-04T07:59:50;13.83;;;9.70;;
177;SDS011;77;48.792;9.032;2023-12-04T08:02:15;16.47;;;10.70;;
177;SDS011;77;48.792;9.032;2023-12-04T08:04:42;15.77;;;10.00;;
177;SDS011;77;48.792;9.032;2023-12-04T08:07:07;15.45;;;10.02;;
177;SDS011;77;48.792;9.032;2023-12-04T08:09:32;14.40;;;9.17;;
177;SDS011;77;48.792;9.032;2023-12-04T08:11:57;16.93;;;10.90;;
177;SDS011;77;48.792;9.032;2023-12-04T08:14:23;15.10;;;9.00;;
177;SDS011;77;48.792;9.032;2023-12-04T08:16:48;16.03;;;9.43;;
177;SDS011;77;48.792;9.032;2023-12-04T08:19:13;13.80;;;8.63;;
177;SDS011;77;48.792;9.032;2023-12-04T08:21:39;13.50;;;8.27;;
177;SDS011;77;48.792;9.032;2023-12-04T08:24:05;15.50;;;9.00;;
177;SDS011;77;48.792;9.032;2023-12-04T08:26:30;15.00;;;9.07;;
177;SDS011;77;48.792;9.032;2023-12-04T08:28:55;12.68;;;8.40;;
177;SDS011;77;48.792;9.032;2023-12-04T08:31:20;13.50;;;8.70;;
177;SDS011;77;48.792;9.032;2023-12-04T08:33:45;12.90;;;8.80;;
177;SDS011;77;48.792;9.032;2023-12-04T08:36:11;12.97;;;8.40;;
177;SDS011;77;48.792;9.032;2023-12-04T08:38:37;15.40;;;9.87;;
177;SDS011;77;48.792;9.032;2023-12-04T08:41:03;14.80;;;9.32;;
177;SDS011;77;48.792;9.032;2023-12-04T08:43:28;13.97;;;8.47;;
177;SDS011;77;48.792;9.032;2023-12-04T08:45:53;13.00;;;8.55;;
177;SDS011;77;48.792;9.032;2023-12-04T08:48:18;13.03;;;8.63;;
177;SDS011;77;48.792;9.032;2023-12-04T08:50:44;13.70;;;8.90;;
177;SDS011;77;48.792;9.032;2023-12-04T08:53:09;14.23;;;8.80;;
177;SDS011;77;48.792;9.032;2023-12-04T08:55:35;14.43;;;10.03;;
177;SDS011;77;48.792;9.032;2023-12-04T08:58:00;12.13;;;8.52;;
177;SDS011;77;48.792;9.032;2023-12-04T09:00:26;15.40;;;9.55;;
177;SDS011;77;48.792;9.032;2023-12-04T09:02:51;16.37;;;10.30;;
177;SDS011;77;48.792;9.032;2023-12-04T09:05:16;16.47;;;10.60;;
177;SDS011;77;48.792;9.032;2023-12-04T09:07:41;15.80;;;9.77;;
177;SDS011;77;48.792;9.032;2023-12-04T09:10:06;19.80;;;10.77;;
177;SDS011;77;48.792;9.032;2023-12-04T09:12:33;14.73;;;10.23;;
177;SDS011;77;48.792;9.032;2023-12-04T09:14:58;16.45;;;10.80;;
177;SDS011;77;48.792;9.032;2023-12-04T09:17:23;15.30;;;10.05;;
177;SDS011;77;48.792;9.032;2023-12-04T09:19:48;17.00;;;11.30;;
177;SDS011;77;48.792;9.032;2023-12-04T09:22:13;16.50;;;10.20;;
177;SDS011;77;48.792;9.032;2023-12-04T09:24:39;17.10;;;10.93;;
177;SDS011;77;48.792;9.032;2023-12-04T09:27:04;15.90;;;10.63;;
177;SDS011;77;48.792;9.032;2023-12-04T09:29:30;16.67;;;10.90;;
177;SDS011;77;48.792;9.032;2023-12-04T09:31:56;17.33;;;11.48;;
177;SDS011;77;48.792;9.032;2023-12-04T09:34:21;16.10;;;10.97;;
177;SDS011;77;48.792;9.032;2023-12-04T09:36:46;18.60;;;11.73;;
177;SDS011;77;48.792;9.032;2023-12-04T09:39:11;16.50;;;11.40;;
177;SDS011;77;48.792;9.032;2023-12-04T09:41:36;17.83;;;11.37;;
177;SDS011;77;48.792;9.032;2023-12-04T09:44:02;18.40;;;11.03;;
177;SDS011;77;48.792;9.032;2023-12-04T09:46:28;19.27;;;11.80;;
177;SDS011;77;48.792;9.032;2023-12-04T09:48:54;18.42;;;11.65;;
177;SDS011;77;48.792;9.032;2023-12-04T09:51:19;17.20;;;11.40;;
177;SDS011;77;48.792;9.032;2023-12-04T09:53:46;13.37;;;8.40;;
177;SDS011;77;48.792;9.032;2023-12-04T09:56:12;17.63;;;11.10;;
177;SDS011;77;48.792;9.032;2023-12-04T09:58:39;18.00;;;11.45;;
177;SDS011;77;48.792;9.032;2023-12-04T10:01:05;17.20;;;11.20;;
177;SDS011;77;48.792;9.032;2023-12-04T10:03:32;16.58;;;11.07;;
177;SDS011;77;48.792;9.032;2023-12-04T10:05:58;17.55;;;11.20;;
177;SDS011;77;48.792;9.032;2023-12-04T10:08:23;16.77;;;11.20;;
177;SDS011;77;48.792;9.032;2023-12-04T10:10:48;19.70;;;12.63;;
177;SDS011;77;48.792;9.032;2023-12-04T10:13:14;18.23;;;12.40;;
177;SDS011;77;48.792;9.032;2023-12-04T10:15:45;19.57;;;13.17;;
177;SDS011;77;48.792;9.032;2023-12-04T10:18:16;19.10;;;12.65;;
177;SDS011;77;48.792;9.032;2023-12-04T10:20:52;19.27;;;12.63;;
177;SDS011;77;48.792;9.032;2023-12-04T10:23:17;17.35;;;11.57;;
177;SDS011;77;48.792;9.032;2023-12-04T10:25:43;18.97;;;12.40;;
177;SDS011;77;48.792;9.032;2023-12-04T10:28:08;18.90;;;13.00;;
177;SDS011;77;48.792;9.032;2023-12-04T10:30:34;19.80;;;12.10;;
177;SDS011;77;48.792;9.032;2023-12-04T10:33:00;19.40;;;12.90;;
177;SDS011;77;48.792;9.032;2023-12-04T10:35:27;19.20;;;12.20;;
177;SDS011;77;48.792;9.032;2023-12-04T10:37:55;17.40;;;12.00;;
177;SDS011;77;48.792;9.032;2023-12-04T10:40:24;18.50;;;11.85;;
177;SDS011;77;48.792;9.032;2023-12-04T10:42:49;15.35;;;10.55;;
177;SDS011;77;48.792;9.032;2023-12-04T10:45:15;16.10;;;10.83;;
177;SDS011;77;48.792;9.032;2023-12-04T10:47:40;15.37;;;10.23;;
177;SDS011;77;48.792;9.032;2023-12-04T10:50:05;18.77;;;12.20;;
177;SDS011;77;48.792;9.032;2023-12-04T10:52:31;20.60;;;11.80;;
177;SDS011;77;48.792;9.032;2023-12-04T10:54:58;18.30;;;12.37;;
177;SDS011;77;48.792;9.032;2023-12-04T10:57:25;17.53;;;11.67;;
177;SDS011;77;48.792;9.032;2023-12-04T10:59:50;17.70;;;12.20;;
177;SDS011;77;48.792;9.032;2023-12-04T11:02:18;18.60;;;12.70;;
177;SDS011;77;48.792;9.032;2023-12-04T11:04:45;18.70;;;12.97;;
177;SDS011;77;48.792;9.032;2023-12-04T11:07:11;17.63;;;11.80;;
177;SDS011;77;48.792;9.032;2023-12-04T11:09:37;20.70;;;12.10;;
177;SDS011;77;48.792;9.032;2023-12-04T11:12:06;17.90;;;11.90;;
177;SDS011;77;48.792;9.032;2023-12-04T11:14:34;15.57;;;11.43;;
177;SDS011;77;48.792;9.032;2023-12-04T11:17:03;18.20;;;11.07;;
177;SDS011;77;48.792;9.032;2023-12-04T11:22:10;18.33;;;10.77;;
177;SDS011;77;48.792;9.032;2023-12-04T11:24:36;15.33;;;10.50;;
177;SDS011;77;48.792;9.032;2023-12-04T11:27:03;18.00;;;10.77;;
177;SDS011;77;48.792;9.032;2023-12-04T11:29:29;14.03;;;10.17;;
177;SDS011;77;48.792;9.032;2023-12-04T11:31:54;14.40;;;9.77;;
177;SDS011;77;48.792;9.032;2023-12-04T11:34:19;15.53;;;9.60;;
177;SDS011;77;48.792;9.032;2023-12-04T11:36:45;13.63;;;9.90;;
177;SDS011;77;48.792;9.032;2023-12-04T11:39:10;14.30;;;9.67;;
177;SDS011;77;48.792;9.032;2023-12-04T11:41:35;14.07;;;9.10;;
177;SDS011;77;48.792;9.032;2023-12-04T11:44:02;12.50;;;8.80;;
177;SDS011;77;48.792;9.032;2023-12-04T11:46:28;12.97;;;8.73;;
177;SDS011;77;48.792;9.032;2023-12-04T11:48:53;13.10;;;9.17;;
177;SDS011;77;48.792;9.032;2023-12-04T11:54:03;12.37;;;7.87;;
177;SDS011;77;48.792;9.032;2023-12-04T11:56:28;12.40;;;8.30;;
177;SDS011;77;48.792;9.032;2023-12-04T11:58:53;11.23;;;7.80;;
177;SDS011;77;48.792;9.032;2023-12-04T12:01:28;10.00;;;6.93;;
177;SDS011;77;48.792;9.032;2023-12-04T12:03:53;9.90;;;6.50;;
177;SDS011;77;48.792;9.032;2023-12-04T12:06:18;10.50;;;7.30;;
177;SDS011;77;48.792;9.032;2023-12-04T12:08:44;10.47;;;6.70;;
177;SDS011;77;48.792;9.032;2023-12-04T12:11:09;10.90;;;6.33;;
177;SDS011;77;48.792;9.032;2023-12-04T12:13:34;9.83;;;5.97;;
177;SDS011;77;48.792;9.032;2023-12-04T12:15:59;8.30;;;5.90;;
177;SDS011;77;48.792;9.032;2023-12-04T12:18:26;8.53;;;6.20;;
177;SDS011;77;48.792;9.032;2023-12-04T12:20:52;10.67;;;5.67;;
177;SDS011;77;48.792;9.032;2023-12-04T12:23:19;10.67;;;6.30;;
177;SDS011;77;48.792;9.032;2023-12-04T12:25:44;7.90;;;5.23;;
177;SDS011;77;48.792;9.032;2023-12-04T12:28:09;8.30;;;5.57;;
177;SDS011;77;48.792;9.032;2023-12-04T12:30:34;7.20;;;5.20;;
177;SDS011;77;48.792;9.032;2023-12-04T12:33:00;7.77;;;5.40;;
177;SDS011;77;48.792;9.032;2023-12-04T12:35:26;7.43;;;4.77;;
177;SDS011;77;48.792;9.032;2023-12-04T12:37:51;7.67;;;5.20;;
177;SDS011;77;48.792;9.032;2023-12-04T12:40:16;7.50;;;5.40;;
177;SDS011;77;48.792;9.032;2023-12-04T12:42:42;9.60;;;5.30;;
177;SDS011;77;48.792;9.032;2023-12-04T12:45:07;8.17;;;5.57;;
177;SDS011;77;48.792;9.032;2023-12-04T12:47:32;7.70;;;5.30;;
177;SDS011;77;48.792;9.032;2023-12-04T12:50:00;10.40;;;6.80;;
177;SDS011;77;48.792;9.032;2023-12-04T12:52:27;13.50;;;8.73;;
177;SDS011;77;48.792;9.032;2023-12-04T12:54:52;16.40;;;11.67;;
177;SDS011;77;48.792;9.032;2023-12-04T12:57:17;19.60;;;12.30;;
177;SDS011;77;48.792;9.032;2023-12-04T12:59:42;16.53;;;11.17;;
177;SDS011;77;48.792;9.032;2023-12-04T13:02:07;19.13;;;11.77;;
177;SDS011;77;48.792;9.032;2023-12-04T13:04:36;15.00;;;10.40;;
177;SDS011;77;48.792;9.032;2023-12-04T13:07:01;17.60;;;11.73;;
177;SDS011;77;48.792;9.032;2023-12-04T13:09:28;14.63;;;9.03;;
177;SDS011;77;48.792;9.032;2023-12-04T13:11:53;13.80;;;9.43;;
177;SDS011;77;48.792;9.032;2023-12-04T13:14:18;15.20;;;10.13;;
177;SDS011;77;48.792;9.032;2023-12-04T13:16:43;15.33;;;9.77;;
177;SDS011;77;48.792;9.032;2023-12-04T13:19:08;15.18;;;9.13;;
177;SDS011;77;48.792;9.032;2023-12-04T13:21:33;15.50;;;9.70;;
177;SDS011;77;48.792;9.032;2023-12-04T13:23:59;15.70;;;8.93;;
177;SDS011;77;48.792;9.032;2023-12-04T13:26:25;13.53;;;8.30;;
177;SDS011;77;48.792;9.032;2023-12-04T13:28:50;12.33;;;8.33;;
177;SDS011;77;48.792;9.032;2023-12-04T13:31:16;15.37;;;9.20;;
177;SDS011;77;48.792;9.032;2023-12-04T13:33:41;12.90;;;8.67;;
177;SDS011;77;48.792;9.032;2023-12-04T13:36:07;16.97;;;10.17;;
177;SDS011;77;48.792;9.032;2023-12-04T13:38:32;13.93;;;9.00;;
177;SDS011;77;48.792;9.032;2023-12-04T13:40:59;16.40;;;10.97;;
177;SDS011;77;48.792;9.032;2023-12-04T13:43:25;16.30;;;10.90;;
177;SDS011;77;48.792;9.032;2023-12-04T13:45:51;18.13;;;11.67;;
177;SDS011;77;48.792;9.032;2023-12-04T13:48:16;18.27;;;11.37;;
177;SDS011;77;48.792;9.032;2023-12-04T13:50:41;17.53;;;11.67;;
177;SDS011;77;48.792;9.032;2023-12-04T13:53:06;18.10;;;11.10;;
177;SDS011;77;48.792;9.032;2023-12-04T13:55:32;19.77;;;12.63;;
177;SDS011;77;48.792;9.032;2023-12-04T13:57:57;19.83;;;12.03;;
177;SDS011;77;48.792;9.032;2023-12-04T14:00:23;18.60;;;11.60;;
177;SDS011;77;48.792;9.032;2023-12-04T14:02:48;21.17;;;12.10;;
177;SDS011;77;48.792;9.032;2023-12-04T14:05:13;18.83;;;12.98;;
177;SDS011;77;48.792;9.032;2023-12-04T14:07:39;16.20;;;11.20;;
177;SDS011;77;48.792;9.032;2023-12-04T14:10:04;19.93;;;11.47;;
177;SDS011;77;48.792;9.032;2023-12-04T14:12:30;18.13;;;11.50;;
177;SDS011;77;48.792;9.032;2023-12-04T14:14:55;21.07;;;13.30;;
177;SDS011;77;48.792;9.032;2023-12-04T14:17:21;19.25;;;11.40;;
177;SDS011;77;48.792;9.032;2023-12-04T14:19:46;19.70;;;11.83;;
177;SDS011;77;48.792;9.032;2023-12-04T14:22:12;18.83;;;11.88;;
177;SDS011;77;48.792;9.032;2023-12-04T14:24:37;16.43;;;10.90;;
177;SDS011;77;48.792;9.032;2023-12-04T14:27:02;18.03;;;11.77;;
177;SDS011;77;48.792;9.032;2023-12-04T14:29:27;17.70;;;11.27;;
177;SDS011;77;48.792;9.032;2023-12-04T14:31:53;16.57;;;11.63;;
177;SDS011;77;48.792;9.032;2023-12-04T14:34:19;16.57;;;10.87;;
177;SDS011;77;48.792;9.032;2023-12-04T14:36:44;15.63;;;10.27;;
177;SDS011;77;48.792;9.032;2023-12-04T14:39:09;12.57;;;8.33;;
177;SDS011;77;48.792;9.032;2023-12-04T14:41:35;16.60;;;10.30;;
177;SDS011;77;48.792;9.032;2023-12-04T14:44:01;16.87;;;10.67;;
177;SDS011;77;48.792;9.032;2023-12-04T14:46:26;18.90;;;10.33;;
177;SDS011;77;48.792;9.032;2023-12-04T14:48:51;14.57;;;10.20;;
177;SDS011;77;48.792;9.032;2023-12-04T14:51:18;15.77;;;10.70;;
177;SDS011;77;48.792;9.032;2023-12-04T14:53:43;16.27;;;10.97;;
177;SDS011;77;48.792;9.032;2023-12-04T14:56:08;16.47;;;10.87;;
177;SDS011;77;48.792;9.032;2023-12-04T14:58:34;15.10;;;10.63;;
177;SDS011;77;48.792;9.032;2023-12-04T15:00:59;16.00;;;10.63;;
177;SDS011;77;48.792;9.032;2023-12-04T15:03:24;14.87;;;10.37;;
177;SDS011;77;48.792;9.032;2023-12-04T15:05:49;13.70;;;10.00;;
177;SDS011;77;48.792;9.032;2023-12-04T15:08:16;14.50;;;10.13;;
177;SDS011;77;48.792;9.032;2023-12-04T15:10:41;15.73;;;10.47;;
177;SDS011;77;48.792;9.032;2023-12-04T15:13:06;14.03;;;10.00;;
177;SDS011;77;48.792;9.032;2023-12-04T15:15:31;14.40;;;10.10;;
177;SDS011;77;48.792;9.032;2023-12-04T15:17:56;13.50;;;9.57;;
177;SDS011;77;48.792;9.032;2023-12-04T15:20:21;14.67;;;9.97;;
177;SDS011;77;48.792;9.032;2023-12-04T15:22:47;14.80;;;9.10;;
177;SDS011;77;48.792;9.032;2023-12-04T15:25:13;12.33;;;8.47;;
177;SDS011;77;48.792;9.032;2023-12-04T15:27:38;12.73;;;8.57;;
177;SDS011;77;48.792;9.032;2023-12-04T15:30:04;12.40;;;8.30;;